Hilland, South Dakota
Current Conditions -  °F | °C
As of 3:55 PM on Wednesday 17 Dec 2014 (Local Time) from KPHP Reporting Station
Overcast Overcast  
Wind Chill: 14°   Ceiling: 1500
Heat Index: 24°   Visibility: 10mi
Dew Point: 19°   Wind: 10mph
Humidity: 81%   Direction: 100°E
Pressure: 30.08"   Gusts: NA
Location:  44.1288°N, 101.804°W
Report Text: KPHP 172255Z AUTO 10009KT 10SM OVC015 M04/M07 A3008 RMK AO2 SLP213 T10441072
Loading
Personal Weather Stations






























Interactive Weather Map New forecast layout! Learn more

10-Day Weather Forecast

Advertisements
Track Severe Weather on mobile